• Join FlightAware (Why Join?)
  • Login
  • US Flag 
12:54AM EDT


 

Airport Tracker/Info


-or-


 

Live Flight TrackerFlight Track Log ✈ AWE3417 ✈ 12-Apr-2013 ✈ KMHT - KDCA

Flight Track Log - Related Links

Times and Time Zones

All times are in EDT time to prevent confusion due to time zone crossing. See the AWE3417 flight status page for this flight to view local times or setup timezone preferences in your user account.

Time Position Orientation Groundspeed Altitude Reporting Facility
EDT Latitude Longitude Course Direction KTS MPH feet Rate Location/Type
06:26PM 42.9500 -71.4167 202° Southwest 134 154 1,300  Level KA90
06:27PM 42.9833 -71.4000 20° North 190 219 3,000 1,920 Climbing KA90
06:27PM 42.9978 -71.3869 33° Northeast 214 246 3,800 1,920 Climbing Boston Center
06:28PM 43.0532 -71.0905 65° Northeast  Level FlightAware Approximate
06:28PM 43.0178 -71.2872 75° East 244 281 5,700  Level Boston Center
06:29PM 43.0745 -70.9701 132° Southeast  Level FlightAware Approximate
06:29PM 43.0478 -71.1700 71° East 311 358 9,100  Level Boston Center
06:30PM 43.0010 -70.8843 144° Southeast  Level FlightAware Approximate
06:30PM 43.0756 -71.0472 73° East 330 380 11,400  Level Boston Center
06:31PM 42.9137 -70.9054 202° Southwest  Level FlightAware Approximate
06:31PM 43.0325 -70.9347 118° Southeast 309 356 14,200  Level Boston Center
06:32PM 42.9567 -70.8939 158° South 276 318 16,700 1,980 Climbing Boston Center
06:33PM 42.8822 -70.9297 199° South 250 288 18,300 1,500 Climbing Boston Center
06:34PM 42.7972 -70.9744 201° Southwest 302 348 19,700 1,500 Climbing Boston Center
06:35PM 42.7228 -71.0100 199° South 329 379 21,300 1,860 Climbing Boston Center
06:36PM 42.6089 -71.0692 201° Southwest 356 410 23,400 1,800 Climbing Boston Center
06:37PM 42.5114 -71.1136 199° South 369 425 25,000 1,260 Climbing Boston Center
06:38PM 42.4225 -71.1828 210° Southwest 374 430 26,000 480 Climbing Boston Center
06:39PM 42.3761 -71.3103 244° Southwest 352 405 26,000 120 Level Boston Center
06:40PM 42.3375 -71.4375 248° West 357 411 26,300 900 Climbing Boston Center
06:41PM 42.2928 -71.5672 245° Southwest 369 425 27,900 1,680 Climbing Boston Center
06:42PM 42.2522 -71.6969 247° West 380 437 29,700 1,020 Climbing Boston Center
06:43PM 42.2111 -71.8292 247° West 380 437 30,000 120 Climbing Boston Center
06:44PM 42.1681 -71.9694 248° West 390 449 30,000  Level Boston Center
06:45PM 42.1247 -72.1042 247° West 395 455 30,000  Level Boston Center
06:46PM 42.0792 -72.2528 248° West 395 455 30,000  Level Boston Center
06:47PM 42.0356 -72.3897 247° West 395 455 30,000  Level Boston Center
06:48PM 41.9919 -72.5239 246° West 395 455 30,000  Level Boston Center
06:49PM 41.9583 -72.6300 247° West 395 455 30,000  Level Boston Center
06:50PM 41.8936 -72.7581 236° Southwest 385 443 30,000  Level Boston Center
06:51PM 41.8078 -72.8717 225° Southwest 395 455 30,000  Level Boston Center
06:52PM 41.7281 -72.9797 225° Southwest 408 470 30,000  Level Boston Center
06:53PM 41.6525 -73.0847 226° Southwest 403 464 30,000  Level Boston Center
06:54PM 41.5769 -73.1867 225° Southwest 392 451 30,000  Level Boston Center
06:57PM 41.3983 -73.4264 225° Southwest 377 434 30,000  Level New York Center
06:58PM 41.3231 -73.5283 226° Southwest 382 440 30,000  Level New York Center
06:59PM 41.2519 -73.6358 229° Southwest 387 445 30,000  Level New York Center
07:00PM 41.1844 -73.7458 231° Southwest 392 451 30,000  Level New York Center
07:01PM 41.1169 -73.8614 232° Southwest 397 457 30,000  Level New York Center
07:02PM 41.0472 -73.9792 232° Southwest 404 465 30,000  Level New York Center
07:03PM 40.9794 -74.0942 232° Southwest 404 465 30,000  Level New York Center
07:04PM 40.9031 -74.2139 230° Southwest 404 465 30,000 -540 Level New York Center
07:05PM 40.8353 -74.3256 231° Southwest 404 465 29,000 -1,020 Descending New York Center
07:06PM 40.7694 -74.4344 231° Southwest 397 457 28,000 -840 Descending New York Center
07:07PM 40.7011 -74.5486 232° Southwest 397 457 27,400 -1,020 Descending New York Center
07:08PM 40.6331 -74.6597 231° Southwest 397 457 26,000 -1,140 Descending New York Center
07:09PM 40.5647 -74.7678 230° Southwest 397 457 25,200 -780 Descending New York Center
07:10PM 40.4925 -74.8728 228° Southwest 397 457 24,500 -720 Descending New York Center
07:11PM 40.4222 -74.9722 227° Southwest 385 443 23,800 -780 Descending New York Center
07:12PM 40.3519 -75.0714 227° Southwest 375 432 23,000 -780 Descending New York Center
07:13PM 40.2817 -75.1703 227° Southwest 375 432 22,300 -540 Descending New York Center
07:14PM 40.2111 -75.2692 227° Southwest 375 432 22,000 -180 Descending New York Center
07:15PM 40.1428 -75.3653 227° Southwest 375 432 22,000  Level New York Center
07:16PM 40.0789 -75.4533 227° Southwest 368 423 22,000  Level New York Center
07:17PM 40.0194 -75.5361 227° Southwest 341 392 22,000  Level New York Center
07:18PM 39.9597 -75.6186 227° Southwest 326 375 22,000 -540 Level New York Center
07:19PM 39.9083 -75.7017 231° Southwest 314 361 21,000 -960 Descending New York Center
07:20PM 39.8589 -75.7847 232° Southwest 300 345 20,100 -960 Descending New York Center
07:21PM 39.8200 -75.8683 239° Southwest 288 331 19,200 -600 Descending New York Center
07:22PM 39.7747 -75.9461 233° Southwest 273 314 19,000 -900 Descending New York Center
07:23PM 39.7364 -76.0161 235° Southwest 273 314 17,500 -1,620 Descending New York Center
07:24PM 39.6906 -76.1047 236° Southwest 273 314 15,900 -1,500 Descending New York Center
07:25PM 39.6367 -76.1922 231° Southwest 287 330 14,500 -1,680 Descending New York Center
07:25PM 39.5833 -76.2500 220° Southwest 314 361 12,900 -1,440 Descending Potomac TRACON
07:26PM 39.5167 -76.3167 218° Southwest 306 352 12,000 -480 Descending Potomac TRACON
07:27PM 39.4500 -76.3833 218° Southwest 307 353 12,000  Level Potomac TRACON
07:28PM 39.3667 -76.4333 205° Southwest 293 337 12,000 -840 Level Potomac TRACON
07:29PM 39.3000 -76.4667 201° Southwest 286 329 10,400 -1,020 Descending Potomac TRACON
07:30PM 39.2333 -76.5333 218° Southwest 281 323 10,000 -240 Descending Potomac TRACON
07:31PM 39.2000 -76.6167 243° Southwest 259 298 10,000  Level Potomac TRACON
07:32PM 39.1500 -76.6833 226° Southwest 255 293 10,000  Level Potomac TRACON
07:33PM 39.1000 -76.7500 226° Southwest 261 300 10,000 -720 Level Potomac TRACON
07:34PM 39.0500 -76.8167 226° Southwest 251 289 8,600 -1,740 Descending Potomac TRACON
07:35PM 39.0000 -76.8667 218° Southwest 256 295 6,600 -1,320 Descending Potomac TRACON
07:36PM 38.9333 -76.9333 218° Southwest 256 295 6,000 -600 Descending Potomac TRACON
07:37PM 38.8667 -76.9500 191° South 268 308 5,400 -1,200 Descending Potomac TRACON
07:38PM 38.8000 -76.9500 180° South 261 300 3,600 -1,200 Descending Potomac TRACON
07:39PM 38.7333 -76.9500 180° South 239 275 3,000 -600 Descending Potomac TRACON